Time;durP1;ratioP1;P1;durP2;ratioP2;P2;SDS_P1;SDS_P2;PMS_P1;PMS_P2;Temp;Humidity;BMP_temperature;BMP_pressure;BME280_temperature;BME280_humidity;BME280_pressure;Samples;Min_cycle;Max_cycle;Signal;HPM_P1;HPM_P2
2022/03/30 00:01:33;;;;;;;51.18;25.08;;;;;;;5.05;100.00;100082.73;1741930;82;21062;-80
2022/03/30 00:04:00;;;;;;;41.00;25.27;;;;;;;5.05;100.00;100081.45;1742299;82;21038;-80
2022/03/30 00:06:28;;;;;;;40.73;23.83;;;;;;;5.02;100.00;100080.33;1741978;82;21094;-85
2022/03/30 00:08:57;;;;;;;39.18;23.50;;;;;;;4.98;100.00;100078.88;1741897;82;21039;-84
2022/03/30 00:11:26;;;;;;;43.80;24.15;;;;;;;4.96;100.00;100087.16;1712993;82;21037;-80
2022/03/30 00:13:56;;;;;;;35.80;22.32;;;;;;;4.94;100.00;100083.83;1741974;82;21520;-79
2022/03/30 00:16:26;;;;;;;33.75;23.65;;;;;;;4.93;100.00;100083.94;1742100;82;21054;-80
2022/03/30 00:18:53;;;;;;;39.27;23.30;;;;;;;4.90;100.00;100080.61;1673122;82;21011;-80
2022/03/30 00:21:23;;;;;;;35.85;22.37;;;;;;;4.85;100.00;100079.22;1742247;82;21122;-80
2022/03/30 00:23:50;;;;;;;32.67;22.48;;;;;;;4.78;100.00;100080.06;1741765;82;21236;-79
2022/03/30 00:26:18;;;;;;;41.05;24.25;;;;;;;4.69;100.00;100078.84;1741830;82;21165;-80
2022/03/30 00:28:45;;;;;;;38.13;23.20;;;;;;;4.62;100.00;100081.42;1741756;81;21007;-80
2022/03/30 00:31:15;;;;;;;34.43;23.42;;;;;;;4.55;100.00;100082.70;1741832;82;21038;-81
2022/03/30 00:33:44;;;;;;;38.08;22.62;;;;;;;4.51;100.00;100082.52;1741951;81;21713;-79
2022/03/30 00:36:11;;;;;;;35.70;23.25;;;;;;;4.49;100.00;100076.61;1741942;82;21275;-80
2022/03/30 00:38:39;;;;;;;35.35;21.62;;;;;;;4.49;100.00;100074.85;1741983;82;22088;-80
2022/03/30 00:41:07;;;;;;;34.48;21.37;;;;;;;4.50;100.00;100073.94;1742088;82;22028;-81
2022/03/30 00:43:35;;;;;;;36.08;22.62;;;;;;;4.49;100.00;100072.28;1734462;81;21042;-87
2022/03/30 00:46:03;;;;;;;34.95;23.30;;;;;;;4.47;100.00;100065.11;1698644;83;21606;-85
2022/03/30 00:48:30;;;;;;;35.10;22.30;;;;;;;4.46;100.00;100069.89;1717061;82;21090;-80
2022/03/30 00:50:59;;;;;;;39.58;23.67;;;;;;;4.38;100.00;100066.46;1698769;83;21556;-79
2022/03/30 00:53:26;;;;;;;36.05;23.62;;;;;;;4.29;100.00;100063.59;1717442;83;21067;-79
2022/03/30 00:55:55;;;;;;;36.60;22.55;;;;;;;4.20;100.00;100058.52;1717134;82;21019;-78
2022/03/30 00:58:24;;;;;;;37.95;21.93;;;;;;;4.15;100.00;100056.64;1698685;83;21114;-79
2022/03/30 01:00:52;;;;;;;30.85;21.33;;;;;;;4.09;100.00;100058.67;1717012;83;21246;-79
2022/03/30 01:03:19;;;;;;;39.23;22.50;;;;;;;4.09;100.00;100048.36;1717060;82;21098;-79
2022/03/30 01:05:47;;;;;;;42.50;24.02;;;;;;;4.13;100.00;100059.80;1717220;82;21063;-79
2022/03/30 01:08:15;;;;;;;34.50;22.10;;;;;;;4.14;100.00;100060.13;1717143;82;21019;-80
2022/03/30 01:10:43;;;;;;;36.13;22.35;;;;;;;4.18;100.00;100046.17;1717153;82;21110;-79
2022/03/30 01:13:12;;;;;;;34.85;23.10;;;;;;;4.20;100.00;100040.01;1717045;82;21399;-79
2022/03/30 01:15:41;;;;;;;35.33;21.80;;;;;;;4.25;100.00;100041.03;1717204;82;21552;-78
2022/03/30 01:18:10;;;;;;;42.30;23.42;;;;;;;4.26;100.00;100042.70;1717144;82;21590;-79
2022/03/30 01:20:38;;;;;;;33.02;22.42;;;;;;;4.25;100.00;100052.63;1698565;83;21050;-79
2022/03/30 01:23:07;;;;;;;37.60;25.37;;;;;;;4.28;100.00;100058.06;1717148;82;21042;-81
2022/03/30 01:25:35;;;;;;;41.80;26.15;;;;;;;4.30;100.00;100054.47;1717079;82;21337;-87
2022/03/30 01:28:04;;;;;;;49.33;30.23;;;;;;;4.33;100.00;100032.40;1698680;83;21528;-83
2022/03/30 01:33:18;;;;;;;64.87;33.80;;;;;;;4.36;100.00;100036.53;1717059;82;21042;-81
2022/03/30 01:35:46;;;;;;;54.60;33.50;;;;;;;4.41;100.00;100033.22;1717260;82;21535;-79
2022/03/30 01:38:14;;;;;;;74.35;35.50;;;;;;;4.50;100.00;100017.69;1717085;82;21613;-78
2022/03/30 01:40:43;;;;;;;76.75;38.28;;;;;;;4.56;100.00;100035.37;1716957;82;21634;-79
2022/03/30 01:43:11;;;;;;;60.92;36.23;;;;;;;4.65;100.00;100037.84;1698710;83;21039;-82
2022/03/30 01:45:38;;;;;;;61.13;37.42;;;;;;;4.71;100.00;100028.48;1716924;82;21018;-79
2022/03/30 01:48:06;;;;;;;66.55;38.90;;;;;;;4.75;100.00;100032.52;1717293;82;21130;-79
2022/03/30 01:50:36;;;;;;;68.35;35.58;;;;;;;4.81;100.00;100030.03;1716791;82;21627;-78
2022/03/30 01:53:04;;;;;;;61.05;36.45;;;;;;;4.86;100.00;100035.29;1716904;82;21081;-79
2022/03/30 01:55:32;;;;;;;51.13;32.20;;;;;;;4.92;100.00;100042.28;1717084;82;21074;-79
2022/03/30 01:57:59;;;;;;;56.73;32.38;;;;;;;4.96;100.00;100053.61;1717197;83;21520;-80
2022/03/30 02:00:26;;;;;;;53.35;31.40;;;;;;;5.01;100.00;100048.17;1717338;82;21035;-78
2022/03/30 02:02:54;;;;;;;50.70;30.68;;;;;;;5.08;100.00;100040.90;1717116;82;21019;-81
2022/03/30 02:05:22;;;;;;;57.65;32.58;;;;;;;5.12;100.00;100043.20;1717271;82;21070;-81
2022/03/30 02:07:52;;;;;;;51.08;30.85;;;;;;;5.16;100.00;100052.88;1717719;82;21090;-78
2022/03/30 02:10:21;;;;;;;50.17;30.43;;;;;;;5.19;100.00;100068.16;1712664;83;21016;-79
2022/03/30 02:12:50;;;;;;;64.90;33.58;;;;;;;5.24;100.00;100044.20;1687111;85;21651;-87
2022/03/30 02:15:18;;;;;;;51.10;30.75;;;;;;;5.28;100.00;100030.16;1714583;83;21077;-80
2022/03/30 02:17:46;;;;;;;59.23;33.25;;;;;;;5.27;100.00;100036.24;1714521;82;21000;-80
2022/03/30 02:20:13;;;;;;;58.38;33.08;;;;;;;5.25;100.00;100039.38;1687157;85;21109;-79
2022/03/30 02:22:41;;;;;;;61.13;34.73;;;;;;;5.25;100.00;100043.25;1714795;82;21101;-81
2022/03/30 02:25:09;;;;;;;52.65;30.62;;;;;;;5.23;100.00;100043.83;1687265;85;21093;-78
2022/03/30 02:27:39;;;;;;;53.55;31.17;;;;;;;5.23;100.00;100057.17;1714651;83;21033;-79
2022/03/30 02:30:08;;;;;;;59.98;34.85;;;;;;;5.23;100.00;100054.16;1682202;85;21072;-79
2022/03/30 02:32:37;;;;;;;54.48;32.63;;;;;;;5.25;100.00;100071.64;1712112;83;21039;-79
2022/03/30 02:35:06;;;;;;;57.43;33.90;;;;;;;5.27;100.00;100069.80;1687015;85;21027;-79
2022/03/30 02:37:33;;;;;;;59.83;31.45;;;;;;;5.31;100.00;100063.98;1714725;82;21642;-80
2022/03/30 02:40:01;;;;;;;52.80;32.20;;;;;;;5.32;100.00;100065.20;1687080;85;21274;-79
2022/03/30 02:42:29;;;;;;;66.82;34.98;;;;;;;5.35;100.00;100047.40;1714595;83;21104;-79
2022/03/30 02:44:57;;;;;;;61.05;34.90;;;;;;;5.34;100.00;100041.39;1686752;85;21169;-80
2022/03/30 02:49:55;;;;;;;59.80;35.83;;;;;;;5.27;100.00;100053.50;1662468;85;22117;-79
2022/03/30 02:52:22;;;;;;;61.95;34.80;;;;;;;5.25;100.00;100048.41;1686590;83;21380;-88
2022/03/30 02:54:50;;;;;;;60.33;35.30;;;;;;;5.20;100.00;100061.63;1686865;85;21106;-85
2022/03/30 02:57:18;;;;;;;64.30;34.25;;;;;;;5.17;100.00;100064.38;1714595;83;21045;-81
2022/03/30 02:59:47;;;;;;;59.10;33.63;;;;;;;5.18;100.00;100064.76;1659729;85;21022;-83
2022/03/30 03:02:15;;;;;;;61.92;33.10;;;;;;;5.23;100.00;100055.44;1714558;83;21022;-78
2022/03/30 03:04:43;;;;;;;53.52;33.08;;;;;;;5.22;100.00;100056.36;1701048;83;21812;-82
2022/03/30 03:07:11;;;;;;;59.95;35.03;;;;;;;5.23;100.00;100063.19;1700256;83;21023;-79
2022/03/30 03:09:40;;;;;;;65.37;35.52;;;;;;;5.27;100.00;100065.93;1709639;83;21572;-79
2022/03/30 03:12:10;;;;;;;66.47;34.05;;;;;;;5.27;100.00;100059.95;1715445;83;21030;-80
2022/03/30 03:14:37;;;;;;;58.33;35.45;;;;;;;5.30;100.00;100063.17;1686967;83;21551;-79
2022/03/30 03:17:05;;;;;;;78.33;38.75;;;;;;;5.34;100.00;100065.10;1715610;83;21607;-78
2022/03/30 03:19:34;;;;;;;63.05;35.13;;;;;;;5.34;100.00;100062.52;1715447;83;21035;-79
2022/03/30 03:22:02;;;;;;;70.03;37.33;;;;;;;5.33;100.00;100062.96;1702075;83;21055;-79
2022/03/30 03:24:30;;;;;;;60.73;35.50;;;;;;;5.32;100.00;100059.20;1674769;84;21571;-79
2022/03/30 03:26:59;;;;;;;61.70;36.20;;;;;;;5.31;100.00;100058.83;1694700;83;21090;-79
2022/03/30 03:29:27;;;;;;;83.15;36.30;;;;;;;5.31;100.00;100058.38;1694739;83;22358;-79
2022/03/30 03:31:55;;;;;;;72.27;37.40;;;;;;;5.33;100.00;100063.44;1694986;83;21113;-83
2022/03/30 03:34:23;;;;;;;60.33;36.55;;;;;;;5.37;100.00;100064.45;1694711;83;21046;-87
2022/03/30 03:36:51;;;;;;;71.37;37.23;;;;;;;5.41;100.00;100068.14;1694783;83;21063;-85
2022/03/30 03:39:18;;;;;;;60.73;35.15;;;;;;;5.41;100.00;100061.20;1694651;84;21109;-79
2022/03/30 03:41:46;;;;;;;71.53;38.83;;;;;;;5.44;100.00;100060.19;1694850;83;21229;-80
2022/03/30 03:44:13;;;;;;;71.60;39.00;;;;;;;5.46;100.00;100060.45;1721384;82;21046;-82
2022/03/30 03:46:42;;;;;;;65.28;40.52;;;;;;;5.48;100.00;100059.89;1713528;82;20975;-79
2022/03/30 03:49:10;;;;;;;70.05;39.50;;;;;;;5.50;100.00;100068.83;1741863;82;21113;-79
2022/03/30 03:51:37;;;;;;;70.67;42.00;;;;;;;5.47;100.00;100063.87;1742318;81;21560;-78
2022/03/30 03:54:05;;;;;;;64.55;40.25;;;;;;;5.45;100.00;100060.55;1741826;81;21092;-80
2022/03/30 03:56:32;;;;;;;69.58;41.50;;;;;;;5.42;100.00;100064.61;1712631;82;21572;-79
2022/03/30 03:59:01;;;;;;;72.58;41.25;;;;;;;5.41;100.00;100055.23;1741928;82;21567;-79
2022/03/30 04:01:29;;;;;;;75.17;41.68;;;;;;;5.36;100.00;100054.22;1741699;82;20975;-80
2022/03/30 04:03:57;;;;;;;74.90;40.90;;;;;;;5.32;100.00;100054.88;1739474;81;21094;-80
2022/03/30 04:06:25;;;;;;;71.75;41.08;;;;;;;5.27;100.00;100050.44;1712138;82;21127;-80
2022/03/30 04:08:54;;;;;;;64.97;38.78;;;;;;;5.26;100.00;100054.42;1716547;82;21006;-80
2022/03/30 04:11:23;;;;;;;71.30;41.65;;;;;;;5.27;100.00;100049.63;1714931;82;21059;-81
2022/03/30 04:13:51;;;;;;;78.00;42.10;;;;;;;5.27;100.00;100061.24;1716962;82;21074;-79
2022/03/30 04:16:19;;;;;;;75.87;44.58;;;;;;;5.28;100.00;100066.78;1723602;82;21547;-80
2022/03/30 04:18:49;;;;;;;75.90;43.52;;;;;;;5.29;100.00;100064.56;1717328;82;21094;-84
2022/03/30 04:21:16;;;;;;;72.47;42.48;;;;;;;5.27;100.00;100059.95;1717218;82;21468;-87
2022/03/30 04:23:45;;;;;;;81.82;43.78;;;;;;;5.27;100.00;100062.06;1717153;83;21081;-79
2022/03/30 04:26:13;;;;;;;69.37;42.30;;;;;;;5.26;100.00;100064.27;1715058;82;20997;-80
2022/03/30 04:28:41;;;;;;;70.50;43.25;;;;;;;5.28;100.00;100069.36;1711638;83;21063;-79
2022/03/30 04:31:11;;;;;;;76.60;44.18;;;;;;;5.33;100.00;100064.73;1712133;83;21703;-80
2022/03/30 04:33:40;;;;;;;70.52;44.13;;;;;;;5.37;100.00;100065.73;1712182;83;21107;-80
2022/03/30 04:36:09;;;;;;;72.55;44.25;;;;;;;5.40;100.00;100067.30;1681806;85;21492;-81
2022/03/30 04:38:38;;;;;;;74.20;43.75;;;;;;;5.42;100.00;100069.77;1686674;84;21583;-79
2022/03/30 04:41:08;;;;;;;75.25;44.13;;;;;;;5.44;100.00;100066.19;1686802;85;21073;-80
2022/03/30 04:43:36;;;;;;;73.25;43.35;;;;;;;5.50;100.00;100078.72;1712065;83;21114;-80
2022/03/30 04:46:05;;;;;;;75.95;43.90;;;;;;;5.55;100.00;100082.30;1712277;83;21545;-79
2022/03/30 04:48:34;;;;;;;74.65;45.48;;;;;;;5.61;100.00;100090.95;1687728;83;22058;-79
2022/03/30 04:51:02;;;;;;;74.10;41.10;;;;;;;5.63;100.00;100087.82;1698858;83;21118;-84
2022/03/30 04:53:32;;;;;;;73.37;44.13;;;;;;;5.67;100.00;100098.79;1714120;82;21021;-83
2022/03/30 04:56:00;;;;;;;78.47;42.17;;;;;;;5.73;100.00;100095.81;1659495;85;21231;-78
2022/03/30 04:58:28;;;;;;;79.32;43.48;;;;;;;5.80;100.00;100091.91;1686338;83;21171;-78
2022/03/30 05:00:56;;;;;;;74.65;45.17;;;;;;;5.88;100.00;100088.85;1686680;85;21372;-80
2022/03/30 05:03:23;;;;;;;72.40;43.58;;;;;;;5.96;100.00;100087.05;1714451;83;21602;-80
2022/03/30 05:05:52;;;;;;;69.82;42.85;;;;;;;6.04;100.00;100091.30;1714387;83;20994;-79
2022/03/30 05:08:19;;;;;;;68.15;42.33;;;;;;;6.13;100.00;100093.73;1686808;85;21140;-79
2022/03/30 05:10:47;;;;;;;69.10;41.90;;;;;;;6.20;100.00;100095.02;1714387;82;21058;-79
2022/03/30 05:13:15;;;;;;;69.17;43.05;;;;;;;6.26;100.00;100089.45;1686785;84;21481;-79
2022/03/30 05:15:44;;;;;;;71.15;43.52;;;;;;;6.30;100.00;100085.72;1714343;83;21034;-80
2022/03/30 05:18:11;;;;;;;67.72;41.28;;;;;;;6.29;100.00;100082.77;1686804;84;21054;-83
2022/03/30 05:20:46;;;;;;;68.25;40.67;;;;;;;6.33;100.00;100091.14;1729575;81;21040;-80
2022/03/30 05:23:14;;;;;;;77.50;43.60;;;;;;;6.35;100.00;100094.47;1701034;82;21044;-85
2022/03/30 05:25:43;;;;;;;66.30;41.00;;;;;;;6.40;100.00;100101.92;1696073;83;21003;-80
2022/03/30 05:28:11;;;;;;;76.33;41.25;;;;;;;6.46;100.00;100104.95;1677024;82;20995;-79
2022/03/30 05:30:39;;;;;;;122.47;58.35;;;;;;;6.48;100.00;100115.18;1715331;83;21081;-79
2022/03/30 05:33:07;;;;;;;189.85;97.92;;;;;;;6.53;100.00;100122.64;1682495;83;21223;-79
2022/03/30 05:35:36;;;;;;;112.42;56.88;;;;;;;6.98;100.00;100113.19;1716676;83;21073;-78
2022/03/30 05:38:03;;;;;;;132.65;51.65;;;;;;;7.48;100.00;100113.22;1720715;83;21567;-79
2022/03/30 05:40:32;;;;;;;96.42;46.23;;;;;;;7.73;100.00;100120.10;1700175;83;21116;-80
2022/03/30 05:42:59;;;;;;;91.40;45.55;;;;;;;7.82;100.00;100115.53;1709494;83;21152;-81
2022/03/30 05:45:28;;;;;;;98.30;44.93;;;;;;;7.80;100.00;100114.84;1688274;82;21083;-79
2022/03/30 05:47:56;;;;;;;131.67;45.78;;;;;;;7.75;100.00;100114.31;1684807;83;20972;-79
2022/03/30 05:50:25;;;;;;;98.03;44.75;;;;;;;7.79;100.00;100111.88;1687957;83;21021;-80
2022/03/30 05:52:57;;;;;;;95.53;42.95;;;;;;;7.84;100.00;100103.30;1697221;83;21196;-81
2022/03/30 05:55:24;;;;;;;127.82;45.28;;;;;;;7.89;100.00;100092.59;1700112;83;21117;-81
2022/03/30 05:57:52;;;;;;;98.82;44.20;;;;;;;7.99;100.00;100085.81;1706854;82;21180;-82
2022/03/30 06:00:20;;;;;;;98.92;42.85;;;;;;;8.04;100.00;100075.92;1671796;83;21057;-89
2022/03/30 06:02:49;;;;;;;116.55;43.90;;;;;;;8.09;100.00;100073.00;1699704;83;21057;-81
2022/03/30 06:05:17;;;;;;;63.78;42.08;;;;;;;8.21;100.00;100073.38;1679353;83;21077;-79
2022/03/30 06:07:46;;;;;;;94.05;41.88;;;;;;;8.29;100.00;100072.83;1728483;83;21144;-81
2022/03/30 06:10:15;;;;;;;81.80;41.13;;;;;;;8.32;100.00;100073.91;1722567;82;21022;-79
2022/03/30 06:12:43;;;;;;;89.20;43.30;;;;;;;8.37;100.00;100065.78;1729159;83;20978;-78
2022/03/30 06:15:11;;;;;;;81.30;43.60;;;;;;;8.38;100.00;100060.92;1729114;83;21014;-80
2022/03/30 06:17:41;;;;;;;73.83;43.25;;;;;;;8.44;100.00;100064.83;1714222;83;21081;-79
2022/03/30 06:20:10;;;;;;;79.00;44.58;;;;;;;8.52;100.00;100072.45;1727631;83;21526;-80
2022/03/30 06:22:44;;;;;;;98.27;45.50;;;;;;;8.57;100.00;100067.37;1728752;82;21262;-81
2022/03/30 06:25:13;;;;;;;100.58;46.10;;;;;;;8.59;100.00;100061.59;1704125;83;21033;-82
2022/03/30 06:27:42;;;;;;;88.40;44.93;;;;;;;8.65;100.00;100064.53;1706452;83;21050;-82
2022/03/30 06:30:10;;;;;;;71.82;45.70;;;;;;;8.80;100.00;100060.44;1702505;83;21088;-81
2022/03/30 06:32:38;;;;;;;65.00;43.30;;;;;;;8.91;100.00;100062.20;1717404;83;21096;-78
2022/03/30 06:35:06;;;;;;;76.57;47.90;;;;;;;8.86;100.00;100064.31;1707853;82;21255;-78
2022/03/30 06:37:34;;;;;;;77.17;46.55;;;;;;;8.72;100.00;100053.70;1701537;83;21780;-79
2022/03/30 06:40:01;;;;;;;82.05;46.65;;;;;;;8.56;100.00;100052.28;1702513;83;21199;-79
2022/03/30 06:42:30;;;;;;;79.58;46.70;;;;;;;8.48;100.00;100052.03;1712699;83;21641;-80
2022/03/30 06:44:57;;;;;;;70.72;42.48;;;;;;;8.47;100.00;100048.59;1701807;83;21001;-78
2022/03/30 06:47:25;;;;;;;91.78;46.88;;;;;;;8.51;100.00;100048.73;1699755;84;21146;-78
2022/03/30 06:49:55;;;;;;;79.42;46.55;;;;;;;8.53;100.00;100051.20;1699638;84;21021;-79
2022/03/30 06:52:22;;;;;;;70.42;44.95;;;;;;;8.57;100.00;100050.05;1699719;84;21082;-81
2022/03/30 06:54:51;;;;;;;63.92;43.25;;;;;;;8.59;100.00;100046.84;1699801;84;21014;-78
2022/03/30 06:57:20;;;;;;;66.25;41.10;;;;;;;8.65;100.00;100038.58;1699941;84;21093;-80
2022/03/30 06:59:47;;;;;;;63.45;41.20;;;;;;;8.73;100.00;100054.06;1699977;84;21150;-78
2022/03/30 07:02:15;;;;;;;72.00;41.65;;;;;;;8.80;100.00;100057.36;1700033;83;21053;-78
2022/03/30 07:04:42;;;;;;;69.37;42.03;;;;;;;8.92;100.00;100062.56;1700037;84;21999;-78
2022/03/30 07:12:44;;;;;;;61.28;38.13;;;;;;;9.30;100.00;100071.74;1717457;83;21554;-77
2022/03/30 07:15:13;;;;;;;52.17;35.80;;;;;;;9.39;100.00;100072.78;1699615;83;21112;-78
2022/03/30 07:17:53;;;;;;;66.42;39.03;;;;;;;9.47;100.00;100072.55;1699763;84;21052;-89
2022/03/30 07:20:24;;;;;;;78.65;41.02;;;;;;;9.56;100.00;100077.95;1699041;84;21009;-79
2022/03/30 07:22:54;;;;;;;72.72;43.33;;;;;;;9.61;100.00;100078.41;1699974;84;21010;-79
2022/03/30 07:25:23;;;;;;;69.82;42.48;;;;;;;9.65;100.00;100080.29;1699967;83;21882;-85
2022/03/30 07:27:54;;;;;;;65.62;41.40;;;;;;;9.69;100.00;100073.42;1672203;84;21538;-83
2022/03/30 07:30:22;;;;;;;;;;;;;;;9.75;100.00;100075.52;1674633;84;21077;-76
2022/03/30 07:32:52;;;;;;;65.20;42.70;;;;;;;9.84;100.00;100080.94;1699399;84;20210;-78
2022/03/30 07:35:23;;;;;;;81.08;43.68;;;;;;;9.92;100.00;100078.54;1699928;84;21057;-79
2022/03/30 07:37:51;;;;;;;67.87;43.95;;;;;;;10.12;100.00;100061.31;1699667;83;21098;-79
2022/03/30 07:40:21;;;;;;;69.60;43.75;;;;;;;10.12;100.00;100061.31;1672357;84;21057;-78
2022/03/30 07:42:50;;;;;;;74.62;45.33;;;;;;;10.25;100.00;100063.73;1700056;84;21041;-79
2022/03/30 07:45:20;;;;;;;67.03;43.65;;;;;;;10.34;100.00;100058.22;1700197;83;21105;-84
2022/03/30 07:47:48;;;;;;;73.17;46.77;;;;;;;10.40;100.00;100055.98;1699821;84;21073;-83
2022/03/30 07:50:15;;;;;;;71.35;46.37;;;;;;;10.47;100.00;100067.17;1699837;84;21120;-80
2022/03/30 07:52:43;;;;;;;67.97;46.70;;;;;;;10.50;100.00;100070.34;1699899;83;21032;-80
2022/03/30 07:55:13;;;;;;;72.42;44.67;;;;;;;10.69;100.00;100068.35;1699632;83;21542;-77
2022/03/30 07:57:42;;;;;;;72.90;44.27;;;;;;;10.83;100.00;100062.44;1699588;84;21132;-77
2022/03/30 08:00:17;;;;;;;69.15;45.20;;;;;;;10.90;100.00;100062.26;1700014;84;21002;-78
2022/03/30 08:02:45;;;;;;;64.03;43.08;;;;;;;10.99;100.00;100056.27;1699849;84;21200;-81
2022/03/30 08:05:14;;;;;;;59.08;44.45;;;;;;;11.12;100.00;100051.29;1699691;84;21093;-80
2022/03/30 08:07:44;;;;;;;60.40;40.98;;;;;;;11.22;100.00;100044.33;1699903;83;21057;-79
2022/03/30 08:10:13;;;;;;;60.58;44.10;;;;;;;11.30;100.00;100044.95;1699208;84;21566;-78
2022/03/30 08:12:41;;;;;;;67.62;44.88;;;;;;;11.40;100.00;100039.77;1699577;84;21006;-78
2022/03/30 08:15:10;;;;;;;55.12;40.98;;;;;;;11.54;100.00;100040.68;1699620;84;21146;-77
2022/03/30 08:17:37;;;;;;;65.92;44.15;;;;;;;11.63;100.00;100043.78;1699602;84;21069;-77
2022/03/30 08:20:06;;;;;;;55.15;41.58;;;;;;;11.70;100.00;100039.31;1699484;84;21028;-80
2022/03/30 08:22:34;;;;;;;62.10;42.15;;;;;;;11.78;100.00;100033.75;1700047;83;21530;-80
2022/03/30 08:25:10;;;;;;;59.67;41.40;;;;;;;11.87;100.00;100029.97;1699864;84;21026;-79
2022/03/30 08:27:38;;;;;;;58.05;38.78;;;;;;;11.95;100.00;100036.16;1697650;83;21936;-77
2022/03/30 08:30:07;;;;;;;50.48;37.85;;;;;;;12.03;100.00;100028.16;1699965;84;21093;-77
2022/03/30 08:32:34;;;;;;;76.35;41.00;;;;;;;12.08;100.00;100028.55;1699481;83;21049;-86
2022/03/30 08:35:05;;;;;;;65.42;39.95;;;;;;;12.15;100.00;100025.72;1699328;84;21132;-85
2022/03/30 08:37:32;;;;;;;47.70;36.40;;;;;;;12.25;100.00;100026.53;1700127;83;21350;-82
2022/03/30 08:39:59;;;;;;;81.70;42.27;;;;;;;12.33;100.00;100026.30;1699741;83;21156;-79
2022/03/30 08:42:27;;;;;;;63.20;41.80;;;;;;;12.37;100.00;100022.47;1700097;83;21072;-76
2022/03/30 08:44:54;;;;;;;74.45;42.33;;;;;;;12.37;100.00;100018.55;1699834;84;21563;-91
2022/03/30 08:47:22;;;;;;;57.00;41.35;;;;;;;12.36;100.00;100020.31;1699837;83;21079;-79
2022/03/30 08:49:51;;;;;;;50.55;40.33;;;;;;;12.35;100.00;100018.66;1672360;84;21057;-79
2022/03/30 08:52:19;;;;;;;57.60;40.43;;;;;;;12.37;100.00;100018.55;1699892;83;21884;-79
2022/03/30 08:54:50;;;;;;;51.42;39.10;;;;;;;12.32;100.00;100015.05;1699305;83;21085;-76
2022/03/30 08:57:19;;;;;;;55.30;41.35;;;;;;;12.35;100.00;100003.50;1699326;84;21152;-78
2022/03/30 09:02:48;;;;;;;55.05;40.73;;;;;;;12.43;100.00;100010.95;1699678;84;21595;-78
2022/03/30 09:05:24;;;;;;;57.48;39.85;;;;;;;12.47;100.00;100004.95;1695490;84;21246;-78
2022/03/30 09:07:56;;;;;;;56.60;40.08;;;;;;;12.50;100.00;100005.98;1699146;84;21014;-79
2022/03/30 09:10:35;;;;;;;57.27;40.55;;;;;;;12.62;100.00;100001.41;1695986;84;21196;-80
2022/03/30 09:13:00;;;;;;;66.45;42.43;;;;;;;12.80;100.00;100004.57;1697141;84;21015;-80
2022/03/30 09:15:28;;;;;;;57.60;41.02;;;;;;;13.03;100.00;100003.21;1699767;84;21600;-79
2022/03/30 09:18:02;;;;;;;54.88;39.85;;;;;;;13.22;100.00;100008.80;1699867;84;21148;-82
2022/03/30 09:20:31;;;;;;;51.42;38.60;;;;;;;13.33;100.00;100008.27;1699668;83;21109;-79
2022/03/30 09:23:00;;;;;;;75.78;38.05;;;;;;;13.43;100.00;100002.98;1699688;84;21057;-86
2022/03/30 09:25:31;;;;;;;49.73;36.70;;;;;;;13.54;100.00;99994.93;1699782;84;21041;-80
2022/03/30 09:28:01;;;;;;;56.10;38.55;;;;;;;13.71;100.00;99997.19;1699912;83;21120;-80
2022/03/30 09:30:30;;;;;;;65.42;40.43;;;;;;;13.84;100.00;99989.77;1700390;83;21231;-81
2022/03/30 09:33:01;;;;;;;61.05;41.10;;;;;;;13.93;100.00;99986.73;1699424;84;21558;-81
2022/03/30 09:35:41;;;;;;;65.62;39.48;;;;;;;14.01;100.00;99982.88;1647285;84;21093;-79
2022/03/30 09:38:19;;;;;;;70.05;38.67;;;;;;;14.20;100.00;99976.61;1697755;84;21084;-80
2022/03/30 09:40:52;;;;;;;56.37;37.88;;;;;;;14.38;100.00;99967.84;1715847;83;21018;-80
2022/03/30 09:43:27;;;;;;;56.92;35.10;;;;;;;14.46;100.00;99964.45;1724201;83;21920;-80
2022/03/30 09:46:09;;;;;;;52.60;34.33;;;;;;;14.55;100.00;99963.52;1728945;83;21093;-80
2022/03/30 09:48:51;;;;;;;51.20;33.08;;;;;;;14.67;100.00;99970.13;1703360;83;20940;-80
2022/03/30 09:51:21;;;;;;;102.92;35.70;;;;;;;14.79;100.00;99973.29;1700110;84;20999;-84
2022/03/30 09:53:49;;;;;;;118.37;33.97;;;;;;;15.05;100.00;99961.91;1699678;83;21058;-80
2022/03/30 09:56:20;;;;;;;55.63;32.15;;;;;;;15.05;100.00;99961.91;1699581;84;21991;-80
2022/03/30 09:59:01;;;;;;;56.85;32.80;;;;;;;15.16;100.00;99956.84;1699722;84;21066;-80
2022/03/30 10:01:34;;;;;;;48.08;32.25;;;;;;;15.13;100.00;99955.87;1700012;84;21097;-83
2022/03/30 10:04:04;;;;;;;53.25;33.30;;;;;;;15.10;100.00;99943.88;1699802;84;21113;-80
2022/03/30 10:06:40;;;;;;;41.73;31.75;;;;;;;15.20;100.00;99955.55;1700061;84;21109;-80
2022/03/30 10:09:08;;;;;;;44.93;32.33;;;;;;;15.27;100.00;99955.23;1699984;84;21227;-81
2022/03/30 10:11:37;;;;;;;50.67;32.60;;;;;;;15.38;100.00;99948.84;1699974;84;21121;-84
2022/03/30 10:14:05;;;;;;;41.70;31.42;;;;;;;15.44;100.00;99950.00;1700098;84;21029;-86
2022/03/30 10:16:35;;;;;;;53.05;33.73;;;;;;;15.48;100.00;99943.93;1700094;84;21291;-81
2022/03/30 10:19:06;;;;;;;44.42;33.85;;;;;;;15.54;100.00;99941.95;1699603;84;21267;-80
2022/03/30 10:22:01;;;;;;;43.83;34.08;;;;;;;15.58;100.00;99930.97;1699593;84;21199;-79
2022/03/30 10:24:50;;;;;;;45.25;33.45;;;;;;;15.66;100.00;99934.09;1699324;83;21074;-79
2022/03/30 10:27:26;;;;;;;48.25;33.15;;;;;;;15.76;100.00;99933.91;1703833;83;21066;-82
2022/03/30 10:30:02;;;;;;;53.95;33.42;;;;;;;15.91;100.00;99935.38;1715355;83;21033;-78
2022/03/30 10:32:36;;;;;;;38.70;30.92;;;;;;;16.08;100.00;99929.62;1705533;83;21019;-79
2022/03/30 10:35:08;;;;;;;67.60;34.85;;;;;;;16.24;99.77;99922.17;1705267;83;21628;-80
2022/03/30 10:37:42;;;;;;;50.55;32.05;;;;;;;16.33;99.26;99918.53;1700496;83;21563;-81
2022/03/30 10:40:22;;;;;;;56.92;34.10;;;;;;;16.46;100.00;99914.56;1702733;83;21030;-79
2022/03/30 10:42:59;;;;;;;36.28;27.40;;;;;;;16.67;92.80;99920.51;1712365;82;21033;-79
2022/03/30 10:45:57;;;;;;;40.12;28.23;;;;;;;16.77;87.15;99911.12;1707912;83;21053;-79
2022/03/30 10:48:37;;;;;;;41.48;26.73;;;;;;;16.92;81.36;99905.44;1698367;83;21570;-79
2022/03/30 10:51:18;;;;;;;41.55;27.10;;;;;;;17.11;78.59;99906.81;1709021;83;20948;-79
2022/03/30 10:53:52;;;;;;;42.25;28.52;;;;;;;17.31;76.34;99895.31;1699715;83;21179;-79
2022/03/30 10:56:26;;;;;;;35.50;25.55;;;;;;;17.50;70.52;99886.10;1717746;83;21077;-81
2022/03/30 10:59:00;;;;;;;36.38;26.15;;;;;;;17.66;71.06;99884.31;1701836;83;21038;-80
2022/03/30 11:01:33;;;;;;;37.17;25.00;;;;;;;17.82;69.71;99881.52;1697264;83;21186;-79
2022/03/30 11:04:18;;;;;;;53.08;25.80;;;;;;;17.93;64.35;99877.61;1717739;83;21515;-79
2022/03/30 11:07:01;;;;;;;34.78;23.20;;;;;;;18.06;65.93;99874.88;1714919;83;21120;-80
2022/03/30 11:09:32;;;;;;;32.28;22.32;;;;;;;18.16;62.64;99874.08;1696458;83;21104;-79
2022/03/30 11:12:13;;;;;;;30.88;22.52;;;;;;;18.21;61.75;99870.90;1673249;83;21070;-82
2022/03/30 11:14:44;;;;;;;35.52;23.00;;;;;;;18.24;58.91;99871.34;1726692;83;21057;-80
2022/03/30 11:17:39;;;;;;;29.80;21.35;;;;;;;18.27;58.95;99865.72;1705590;83;21021;-79
2022/03/30 11:20:08;;;;;;;29.50;21.57;;;;;;;18.30;56.20;99857.94;1700399;82;21139;-79
2022/03/30 11:22:42;;;;;;;41.58;23.02;;;;;;;18.40;56.79;99859.80;1717282;82;21585;-79
2022/03/30 11:25:19;;;;;;;31.87;21.73;;;;;;;18.51;55.06;99849.78;1709982;83;21061;-88
2022/03/30 11:28:08;;;;;;;31.07;20.85;;;;;;;18.55;53.63;99853.66;1702101;83;21079;-80
2022/03/30 11:30:43;;;;;;;30.10;19.30;;;;;;;18.58;53.70;99847.52;1706159;83;21000;-78
2022/03/30 11:33:23;;;;;;;33.98;20.12;;;;;;;18.65;52.56;99845.44;1701187;83;21069;-79
2022/03/30 11:35:52;;;;;;;27.42;20.30;;;;;;;18.70;53.11;99847.84;1702455;83;21591;-80